createdAt,value
2018-12-06T00:00:27.088Z,2.43
2018-12-06T00:02:57.540Z,2.41
2018-12-06T00:05:28.168Z,2.48
2018-12-06T00:08:09.611Z,2.37
2018-12-06T00:10:40.409Z,2.51
2018-12-06T00:13:11.095Z,2.56
2018-12-06T00:15:41.974Z,2.52
2018-12-06T00:18:12.552Z,2.51
2018-12-06T00:20:43.159Z,2.47
2018-12-06T00:23:13.658Z,2.40
2018-12-06T00:25:44.823Z,2.29
2018-12-06T00:28:15.497Z,2.42
2018-12-06T00:30:47.120Z,2.22
2018-12-06T00:33:17.672Z,2.07
2018-12-06T00:35:48.254Z,2.08
2018-12-06T00:38:18.952Z,2.16
2018-12-06T00:40:49.707Z,2.15
2018-12-06T00:43:20.001Z,2.15
2018-12-06T00:45:50.778Z,2.24
2018-12-06T00:48:21.386Z,2.22
2018-12-06T00:50:52.055Z,2.21
2018-12-06T00:53:22.626Z,2.17
2018-12-06T00:55:53.168Z,2.08
2018-12-06T00:58:23.687Z,2.09
2018-12-06T01:00:54.455Z,2.10
2018-12-06T01:03:25.150Z,2.22
2018-12-06T01:05:55.818Z,2.17
2018-12-06T01:08:26.863Z,2.27
2018-12-06T01:10:57.609Z,2.30
2018-12-06T01:13:28.310Z,2.19
2018-12-06T01:15:58.867Z,2.16
2018-12-06T01:18:29.569Z,2.28
2018-12-06T01:21:00.237Z,2.13
2018-12-06T01:23:30.771Z,2.16
2018-12-06T01:26:01.499Z,2.17
2018-12-06T01:28:32.151Z,2.18
2018-12-06T01:31:02.881Z,2.10
2018-12-06T01:33:33.523Z,1.90
2018-12-06T01:36:04.238Z,1.85
2018-12-06T01:38:34.861Z,1.92
2018-12-06T01:41:05.594Z,1.96
2018-12-06T01:43:36.067Z,2.06
2018-12-06T01:46:06.772Z,1.92
2018-12-06T01:48:38.036Z,1.92
2018-12-06T01:51:08.650Z,1.90
2018-12-06T01:53:39.419Z,1.89
2018-12-06T01:56:10.107Z,1.84
2018-12-06T01:58:40.800Z,1.82
2018-12-06T02:01:11.542Z,1.87
2018-12-06T02:03:42.358Z,1.89
2018-12-06T02:06:13.023Z,1.84
2018-12-06T02:08:43.723Z,1.72
2018-12-06T02:11:14.205Z,1.69
2018-12-06T02:13:44.965Z,1.72
2018-12-06T02:16:15.782Z,1.82
2018-12-06T02:18:46.309Z,1.58
2018-12-06T02:21:17.107Z,1.76
2018-12-06T02:23:47.799Z,1.77
2018-12-06T02:26:18.360Z,1.79
2018-12-06T02:28:48.969Z,1.81
2018-12-06T02:31:19.920Z,1.69
2018-12-06T02:33:51.317Z,1.60
2018-12-06T02:36:22.083Z,1.68
2018-12-06T02:38:52.660Z,1.73
2018-12-06T02:41:23.312Z,1.78
2018-12-06T02:43:54.088Z,1.72
2018-12-06T02:46:24.771Z,1.75
2018-12-06T02:48:55.410Z,1.58
2018-12-06T02:51:26.627Z,1.74
2018-12-06T02:53:57.010Z,1.69
2018-12-06T02:56:27.467Z,1.61
2018-12-06T02:58:58.087Z,1.80
2018-12-06T03:01:28.747Z,1.64
2018-12-06T03:03:59.259Z,1.57
2018-12-06T03:06:31.254Z,1.53
2018-12-06T03:09:03.871Z,1.49
2018-12-06T03:11:36.082Z,1.62
2018-12-06T03:14:06.579Z,1.50
2018-12-06T03:16:37.400Z,1.52
2018-12-06T03:19:07.937Z,1.70
2018-12-06T03:21:39.618Z,1.57
2018-12-06T03:24:10.227Z,1.68
2018-12-06T03:26:40.821Z,1.51
2018-12-06T03:29:11.394Z,1.37
2018-12-06T03:31:41.991Z,1.38
2018-12-06T03:34:12.395Z,1.38
2018-12-06T03:36:42.783Z,1.30
2018-12-06T03:39:13.395Z,1.37
2018-12-06T03:41:44.065Z,1.25
2018-12-06T03:44:15.587Z,1.25
2018-12-06T03:46:46.331Z,1.26
2018-12-06T03:49:16.969Z,1.18
2018-12-06T03:51:47.623Z,1.19
2018-12-06T03:54:18.400Z,1.18
2018-12-06T03:56:49.084Z,1.25
2018-12-06T03:59:19.947Z,1.24
2018-12-06T04:01:50.757Z,1.30
2018-12-06T04:04:21.322Z,1.34
2018-12-06T04:06:51.921Z,1.40
2018-12-06T04:09:22.213Z,1.42
2018-12-06T04:11:52.778Z,1.22
2018-12-06T04:14:23.062Z,1.23
2018-12-06T04:16:53.577Z,1.14
2018-12-06T04:19:24.522Z,1.12
2018-12-06T04:21:55.229Z,1.11
2018-12-06T04:24:25.875Z,1.24
2018-12-06T04:26:56.224Z,1.22
2018-12-06T04:29:26.711Z,1.20
2018-12-06T04:31:57.413Z,1.33
2018-12-06T04:34:27.897Z,1.04
2018-12-06T04:36:58.636Z,1.20
2018-12-06T04:39:29.216Z,1.18
2018-12-06T04:41:59.797Z,1.17
2018-12-06T04:44:30.569Z,1.17
2018-12-06T04:47:01.285Z,1.27
2018-12-06T04:49:31.998Z,1.14
2018-12-06T04:52:02.629Z,1.09
2018-12-06T04:54:33.091Z,1.14
2018-12-06T04:57:04.721Z,1.15
2018-12-06T04:59:35.396Z,1.16
2018-12-06T05:02:06.130Z,1.12
2018-12-06T05:04:36.656Z,1.12
2018-12-06T05:07:07.227Z,1.05
2018-12-06T05:09:37.830Z,1.15
2018-12-06T05:12:08.388Z,1.24
2018-12-06T05:14:39.095Z,1.24
2018-12-06T05:17:09.553Z,1.21
2018-12-06T05:19:40.252Z,1.30
2018-12-06T05:22:10.576Z,1.37
2018-12-06T05:24:40.912Z,1.47
2018-12-06T05:27:11.212Z,1.38
2018-12-06T05:29:42.831Z,1.43
2018-12-06T05:32:13.536Z,1.46
2018-12-06T05:34:44.541Z,1.56
2018-12-06T05:37:14.859Z,1.53
2018-12-06T05:39:45.418Z,1.40
2018-12-06T05:42:16.217Z,1.27
2018-12-06T05:44:46.863Z,1.23
2018-12-06T05:47:17.412Z,0.98
2018-12-06T05:49:47.908Z,1.09
2018-12-06T05:52:18.745Z,1.13
2018-12-06T05:54:49.279Z,1.01
2018-12-06T05:57:19.893Z,0.79
2018-12-06T05:59:50.330Z,0.94
2018-12-06T06:02:20.713Z,0.92
2018-12-06T06:04:51.047Z,1.07
2018-12-06T06:07:21.380Z,1.00
2018-12-06T06:09:51.675Z,0.98
2018-12-06T06:12:22.327Z,0.90
2018-12-06T06:14:53.017Z,0.54
2018-12-06T06:17:23.895Z,0.63
2018-12-06T06:19:54.516Z,0.76
2018-12-06T06:22:25.071Z,0.73
2018-12-06T06:24:55.816Z,0.71
2018-12-06T06:27:26.451Z,0.69
2018-12-06T06:29:57.249Z,0.72
2018-12-06T06:32:27.942Z,0.71
2018-12-06T06:34:58.396Z,0.82
2018-12-06T06:37:29.037Z,0.79
2018-12-06T06:39:59.441Z,0.84
2018-12-06T06:42:29.847Z,0.70
2018-12-06T06:45:00.367Z,0.73
2018-12-06T06:47:30.712Z,0.69
2018-12-06T06:50:01.430Z,0.68
2018-12-06T06:52:32.944Z,0.65
2018-12-06T06:55:05.649Z,0.64
2018-12-06T06:57:38.330Z,0.54
2018-12-06T07:00:10.222Z,0.58
2018-12-06T07:02:40.784Z,0.77
2018-12-06T07:05:11.530Z,0.72
2018-12-06T07:07:43.067Z,0.66
2018-12-06T07:10:13.854Z,0.65
2018-12-06T07:12:44.550Z,0.81
2018-12-06T07:15:15.291Z,1.09
2018-12-06T07:17:45.920Z,1.49
2018-12-06T07:20:16.550Z,1.52
2018-12-06T07:22:48.211Z,1.45
2018-12-06T07:25:19.116Z,1.37
2018-12-06T07:27:49.875Z,1.53
2018-12-06T07:30:20.673Z,1.36
2018-12-06T07:32:51.266Z,1.67
2018-12-06T07:35:22.021Z,1.78
2018-12-06T07:37:52.643Z,2.32
2018-12-06T07:40:23.330Z,2.41
2018-12-06T07:42:54.269Z,2.67
2018-12-06T07:45:25.422Z,2.84
2018-12-06T07:47:56.229Z,3.35
2018-12-06T07:50:27.077Z,3.52
2018-12-06T07:52:57.716Z,3.61
2018-12-06T07:55:28.410Z,3.35
2018-12-06T07:57:59.177Z,3.15
2018-12-06T08:00:29.900Z,3.15
2018-12-06T08:03:00.574Z,3.13
2018-12-06T08:05:31.279Z,3.49
2018-12-06T08:08:01.945Z,3.87
2018-12-06T08:10:32.319Z,4.10
2018-12-06T08:13:02.948Z,4.31
2018-12-06T08:15:33.622Z,4.18
2018-12-06T08:18:04.815Z,4.00
2018-12-06T08:20:35.569Z,4.00
2018-12-06T08:23:06.373Z,3.41
2018-12-06T08:25:37.118Z,3.21
2018-12-06T08:28:07.799Z,2.93
2018-12-06T08:30:38.596Z,2.96
2018-12-06T08:33:09.265Z,2.72
2018-12-06T08:35:39.897Z,2.70
2018-12-06T08:38:12.252Z,2.99
2018-12-06T08:40:43.311Z,3.04
2018-12-06T08:43:14.054Z,3.29
2018-12-06T08:45:44.872Z,3.14
2018-12-06T08:48:15.406Z,3.05
2018-12-06T08:50:46.184Z,3.05
2018-12-06T08:53:16.775Z,3.10
2018-12-06T08:55:47.548Z,3.35
2018-12-06T08:58:19.960Z,3.53
2018-12-06T09:00:50.771Z,3.61
2018-12-06T09:03:21.327Z,3.79
2018-12-06T09:05:51.952Z,3.76
2018-12-06T09:08:22.738Z,3.46
2018-12-06T09:10:53.682Z,3.68
2018-12-06T09:13:23.972Z,3.77
2018-12-06T09:15:54.412Z,3.95
2018-12-06T09:18:24.801Z,4.07
2018-12-06T09:20:55.161Z,4.01
2018-12-06T09:23:26.007Z,4.15
2018-12-06T09:25:56.711Z,4.12
2018-12-06T09:28:27.395Z,4.45
2018-12-06T09:31:01.174Z,4.55
2018-12-06T09:33:30.644Z,4.53
2018-12-06T09:36:01.382Z,4.86
2018-12-06T09:38:32.111Z,5.31
2018-12-06T09:41:03.086Z,5.25
2018-12-06T09:43:33.844Z,5.37
2018-12-06T09:46:04.561Z,5.68
2018-12-06T09:48:35.075Z,5.79
2018-12-06T09:51:06.102Z,5.97
2018-12-06T09:53:36.735Z,6.10
2018-12-06T09:56:07.979Z,5.93
2018-12-06T09:58:38.584Z,5.95
2018-12-06T10:01:09.345Z,6.29
2018-12-06T10:03:39.973Z,6.24
2018-12-06T10:06:10.626Z,6.67
2018-12-06T10:08:41.504Z,6.42
2018-12-06T10:11:12.216Z,6.20
2018-12-06T10:13:43.048Z,6.25
2018-12-06T10:16:13.993Z,6.57
2018-12-06T10:18:44.654Z,6.66
2018-12-06T10:21:15.482Z,6.63
2018-12-06T10:23:46.344Z,6.45
2018-12-06T10:26:16.831Z,6.60
2018-12-06T10:28:47.475Z,6.79
2018-12-06T10:31:18.267Z,6.50
2018-12-06T10:33:49.169Z,6.68
2018-12-06T10:36:19.901Z,6.82
2018-12-06T10:38:50.557Z,6.50
2018-12-06T10:41:20.957Z,6.60
2018-12-06T10:43:51.987Z,6.79
2018-12-06T10:46:23.444Z,6.28
2018-12-06T10:48:54.258Z,6.25
2018-12-06T10:51:35.571Z,6.99
2018-12-06T10:54:06.721Z,6.92
2018-12-06T10:56:37.639Z,6.94
2018-12-06T10:59:08.159Z,6.76
2018-12-06T11:01:43.527Z,6.86
2018-12-06T11:04:14.307Z,7.02
2018-12-06T11:06:45.556Z,7.09
2018-12-06T11:09:16.311Z,7.09
2018-12-06T11:11:47.010Z,7.02
2018-12-06T11:14:17.830Z,6.79
2018-12-06T11:16:48.744Z,6.53
2018-12-06T11:19:19.443Z,6.59
2018-12-06T11:21:50.335Z,6.46
2018-12-06T11:24:21.126Z,6.63
2018-12-06T11:26:51.680Z,7.06
2018-12-06T11:29:22.297Z,7.31
2018-12-06T11:31:53.366Z,7.35
2018-12-06T11:34:24.339Z,7.26
2018-12-06T11:36:55.033Z,7.03
2018-12-06T11:39:25.853Z,7.31
2018-12-06T11:41:56.768Z,7.42
2018-12-06T11:44:27.548Z,7.81
2018-12-06T11:46:58.295Z,7.86
2018-12-06T11:49:29.110Z,7.87
2018-12-06T11:52:00.014Z,7.71
2018-12-06T11:54:30.982Z,7.78
2018-12-06T11:57:01.690Z,8.03
2018-12-06T11:59:32.373Z,7.91
2018-12-06T12:02:09.763Z,8.27
2018-12-06T12:04:35.619Z,7.77
2018-12-06T12:07:06.396Z,7.72
2018-12-06T12:09:37.321Z,7.74
2018-12-06T12:12:07.997Z,8.05
2018-12-06T12:14:40.550Z,7.87
2018-12-06T12:17:10.972Z,7.89
2018-12-06T12:19:41.754Z,7.81
2018-12-06T12:22:12.275Z,8.19
2018-12-06T12:24:42.966Z,8.21
2018-12-06T12:27:13.482Z,7.51
2018-12-06T12:29:44.328Z,7.12
2018-12-06T12:32:14.788Z,7.38
2018-12-06T12:34:45.533Z,7.07
2018-12-06T12:37:16.191Z,7.02
2018-12-06T12:39:46.911Z,7.09
2018-12-06T12:42:17.641Z,6.58
2018-12-06T12:44:48.388Z,6.21
2018-12-06T12:47:19.147Z,5.99
2018-12-06T12:49:50.178Z,5.80
2018-12-06T12:52:20.970Z,5.62
2018-12-06T12:54:51.878Z,5.72
2018-12-06T12:57:22.455Z,5.88
2018-12-06T12:59:53.054Z,6.00
2018-12-06T13:02:23.515Z,6.06
2018-12-06T13:04:54.170Z,6.07
2018-12-06T13:07:24.905Z,5.96
2018-12-06T13:09:55.596Z,5.71
2018-12-06T13:12:26.218Z,5.92
2018-12-06T13:14:56.798Z,5.80
2018-12-06T13:17:27.445Z,5.69
2018-12-06T13:19:58.160Z,5.76
2018-12-06T13:22:28.926Z,5.96
2018-12-06T13:24:59.756Z,6.08
2018-12-06T13:27:30.740Z,6.19
2018-12-06T13:30:01.501Z,6.09
2018-12-06T13:32:32.323Z,6.19
2018-12-06T13:35:03.199Z,6.01
2018-12-06T13:37:33.873Z,6.17
2018-12-06T13:40:04.624Z,6.03
2018-12-06T13:42:35.736Z,5.94
2018-12-06T13:45:06.948Z,5.99
2018-12-06T13:47:39.441Z,5.97
2018-12-06T13:50:10.285Z,5.88
2018-12-06T13:52:40.835Z,6.01
2018-12-06T13:55:11.619Z,5.98
2018-12-06T13:57:42.190Z,6.08
2018-12-06T14:00:12.954Z,6.11
2018-12-06T14:02:43.877Z,6.01
2018-12-06T14:05:14.751Z,6.03
2018-12-06T14:07:45.273Z,5.80
2018-12-06T14:10:15.940Z,5.80
2018-12-06T14:12:46.655Z,5.85
2018-12-06T14:15:17.368Z,5.97
2018-12-06T14:17:48.048Z,6.02
2018-12-06T14:20:18.877Z,5.88
2018-12-06T14:22:49.622Z,5.89
2018-12-06T14:25:20.312Z,5.78
2018-12-06T14:27:50.911Z,5.59
2018-12-06T14:30:21.377Z,5.52
2018-12-06T14:32:51.895Z,5.46
2018-12-06T14:35:22.450Z,5.48
2018-12-06T14:37:53.071Z,5.37
2018-12-06T14:40:23.850Z,5.33
2018-12-06T14:42:54.872Z,5.31
2018-12-06T14:45:25.627Z,5.36
2018-12-06T14:47:56.276Z,5.19
2018-12-06T14:50:27.096Z,5.23
2018-12-06T14:52:57.818Z,5.10
2018-12-06T14:55:28.698Z,5.08
2018-12-06T14:57:59.615Z,5.05
2018-12-06T15:00:30.371Z,4.97
2018-12-06T15:03:01.179Z,4.96
2018-12-06T15:05:31.659Z,4.95
2018-12-06T15:08:02.186Z,4.94
2018-12-06T15:10:32.927Z,4.89
2018-12-06T15:13:03.607Z,4.74
2018-12-06T15:15:34.472Z,4.61
2018-12-06T15:18:05.255Z,4.56
2018-12-06T15:20:36.759Z,4.59
2018-12-06T15:23:07.594Z,4.55
2018-12-06T15:25:41.853Z,4.37
2018-12-06T15:28:10.848Z,4.12
2018-12-06T15:30:41.649Z,4.08
2018-12-06T15:33:12.300Z,3.95
2018-12-06T15:35:42.948Z,3.88
2018-12-06T15:38:13.524Z,3.80
2018-12-06T15:40:44.528Z,3.64
2018-12-06T15:43:14.902Z,3.72
2018-12-06T15:45:45.564Z,3.68
2018-12-06T15:48:16.014Z,3.68
2018-12-06T15:50:46.684Z,3.59
2018-12-06T15:53:17.361Z,3.53
2018-12-06T15:55:48.033Z,3.58
2018-12-06T15:58:18.728Z,3.67
2018-12-06T16:00:49.531Z,3.60
2018-12-06T16:03:20.083Z,3.56
2018-12-06T16:05:50.764Z,3.44
2018-12-06T16:08:21.559Z,3.26
2018-12-06T16:10:52.771Z,3.14
2018-12-06T16:13:23.332Z,3.20
2018-12-06T16:15:54.017Z,3.13
2018-12-06T16:18:24.484Z,3.15
2018-12-06T16:20:55.284Z,3.18
2018-12-06T16:23:25.851Z,3.06
2018-12-06T16:25:56.421Z,3.02
2018-12-06T16:28:27.036Z,2.95
2018-12-06T16:30:57.693Z,2.71
2018-12-06T16:33:28.152Z,2.64
2018-12-06T16:35:58.816Z,2.63
2018-12-06T16:38:29.498Z,2.46
2018-12-06T16:41:00.398Z,2.46
2018-12-06T16:43:31.081Z,2.41
2018-12-06T16:46:01.748Z,2.41
2018-12-06T16:48:32.748Z,2.44
2018-12-06T16:51:03.318Z,2.41
2018-12-06T16:53:34.158Z,2.40
2018-12-06T16:56:04.858Z,2.38
2018-12-06T16:58:36.399Z,2.35
2018-12-06T17:01:07.032Z,2.29
2018-12-06T17:03:37.795Z,2.25
2018-12-06T17:06:08.581Z,2.31
2018-12-06T17:08:39.485Z,2.46
2018-12-06T17:11:10.413Z,2.46
2018-12-06T17:13:41.071Z,2.58
2018-12-06T17:16:11.559Z,2.54
2018-12-06T17:18:42.092Z,2.67
2018-12-06T17:21:12.960Z,2.70
2018-12-06T17:23:43.464Z,2.70
2018-12-06T17:26:14.173Z,2.63
2018-12-06T17:28:44.561Z,2.69
2018-12-06T17:31:15.305Z,2.66
2018-12-06T17:33:46.199Z,2.63
2018-12-06T17:36:16.848Z,2.61
2018-12-06T17:38:47.566Z,2.57
2018-12-06T17:41:18.024Z,2.62
2018-12-06T17:43:48.742Z,2.58
2018-12-06T17:46:19.307Z,2.52
2018-12-06T17:48:49.833Z,2.55
2018-12-06T17:51:20.491Z,2.47
2018-12-06T17:53:52.357Z,2.42
2018-12-06T17:56:23.787Z,2.34
2018-12-06T17:58:54.381Z,2.45
2018-12-06T18:01:24.768Z,2.48
2018-12-06T18:03:55.097Z,2.52
2018-12-06T18:06:25.575Z,2.51
2018-12-06T18:08:56.342Z,2.49
2018-12-06T18:11:26.911Z,2.44
2018-12-06T18:13:57.438Z,2.39
2018-12-06T18:16:27.942Z,2.41
2018-12-06T18:18:58.308Z,2.45
2018-12-06T18:21:29.542Z,2.29
2018-12-06T18:24:00.034Z,2.35
2018-12-06T18:26:30.421Z,2.17
2018-12-06T18:29:01.017Z,2.04
2018-12-06T18:31:31.344Z,1.90
2018-12-06T18:34:01.902Z,1.88
2018-12-06T18:36:32.498Z,1.88
2018-12-06T18:39:03.920Z,1.78
2018-12-06T18:41:36.387Z,1.75
2018-12-06T18:44:06.675Z,1.74
2018-12-06T18:46:37.284Z,1.72
2018-12-06T18:49:07.905Z,1.61
2018-12-06T18:51:38.562Z,1.69
2018-12-06T18:54:09.251Z,1.60
2018-12-06T18:56:39.765Z,1.60
2018-12-06T18:59:10.507Z,1.52
2018-12-06T19:01:41.170Z,1.47
2018-12-06T19:04:12.049Z,1.35
2018-12-06T19:06:45.280Z,1.36
2018-12-06T19:09:15.918Z,1.34
2018-12-06T19:11:46.475Z,1.09
2018-12-06T19:14:21.815Z,0.95
2018-12-06T19:16:49.740Z,0.95
2018-12-06T19:19:20.133Z,0.83
2018-12-06T19:21:50.610Z,0.85
2018-12-06T19:24:21.295Z,0.89
2018-12-06T19:26:51.859Z,0.91
2018-12-06T19:29:22.539Z,0.92
2018-12-06T19:31:52.998Z,0.81
2018-12-06T19:34:23.548Z,0.88
2018-12-06T19:36:53.932Z,0.92
2018-12-06T19:39:24.339Z,0.78
2018-12-06T19:41:54.928Z,0.76
2018-12-06T19:44:25.662Z,0.69
2018-12-06T19:46:56.851Z,0.67
2018-12-06T19:49:27.595Z,0.58
2018-12-06T19:51:57.871Z,0.45
2018-12-06T19:54:28.793Z,0.52
2018-12-06T19:56:59.867Z,0.57
2018-12-06T19:59:30.315Z,0.43
2018-12-06T20:02:00.727Z,0.47
2018-12-06T20:04:31.141Z,0.34
2018-12-06T20:07:01.869Z,0.35
2018-12-06T20:09:32.537Z,0.31
2018-12-06T20:12:03.125Z,0.28
2018-12-06T20:14:33.905Z,0.24
2018-12-06T20:17:04.802Z,0.23
2018-12-06T20:19:35.600Z,0.23
2018-12-06T20:22:06.072Z,0.16
2018-12-06T20:24:36.388Z,0.00
2018-12-06T20:27:06.916Z,-0.08
2018-12-06T20:29:37.271Z,-0.08
2018-12-06T20:32:14.527Z,-0.10
2018-12-06T20:34:42.756Z,-0.23
2018-12-06T20:37:13.238Z,-0.35
2018-12-06T20:39:43.871Z,-0.35
2018-12-06T20:42:14.573Z,-0.36
2018-12-06T20:44:45.286Z,-0.48
2018-12-06T20:47:19.274Z,-0.48
2018-12-06T20:49:50.014Z,-0.52
2018-12-06T20:52:20.287Z,-0.47
2018-12-06T20:54:50.613Z,-0.30
2018-12-06T20:57:20.839Z,-0.28
2018-12-06T20:59:51.100Z,-0.22
2018-12-06T21:02:21.389Z,-0.16
2018-12-06T21:04:52.025Z,-0.17
2018-12-06T21:07:22.497Z,-0.09
2018-12-06T21:09:53.188Z,-0.07
2018-12-06T21:12:23.798Z,-0.11
2018-12-06T21:14:54.634Z,-0.10
2018-12-06T21:17:25.076Z,-0.02
2018-12-06T21:19:55.704Z,0.02
2018-12-06T21:22:26.381Z,0.02
2018-12-06T21:24:56.991Z,0.02
2018-12-06T21:27:27.566Z,0.02
2018-12-06T21:29:58.333Z,-0.06
2018-12-06T21:32:29.133Z,-0.09
2018-12-06T21:34:59.805Z,-0.12
2018-12-06T21:37:30.604Z,-0.12
2018-12-06T21:40:01.902Z,-0.14
2018-12-06T21:42:33.083Z,-0.22
2018-12-06T21:45:04.055Z,-0.35
2018-12-06T21:47:34.749Z,-0.35
2018-12-06T21:50:07.253Z,-0.44
2018-12-06T21:52:38.066Z,-0.47
2018-12-06T21:55:09.062Z,-0.46
2018-12-06T21:57:39.731Z,-0.69
2018-12-06T22:00:10.984Z,-0.83
2018-12-06T22:02:41.904Z,-0.88
2018-12-06T22:05:12.399Z,-1.00
2018-12-06T22:07:43.230Z,-0.95
2018-12-06T22:10:14.266Z,-1.00
2018-12-06T22:12:44.975Z,-0.92
2018-12-06T22:15:15.521Z,-0.81
2018-12-06T22:17:46.340Z,-0.83
2018-12-06T22:20:16.823Z,-0.89
2018-12-06T22:22:47.200Z,-0.98
2018-12-06T22:25:17.629Z,-1.10
2018-12-06T22:27:48.056Z,-1.11
2018-12-06T22:30:18.575Z,-1.16
2018-12-06T22:32:48.927Z,-1.24
2018-12-06T22:35:19.350Z,-1.28
2018-12-06T22:37:49.868Z,-1.29
2018-12-06T22:40:20.302Z,-1.35
2018-12-06T22:42:50.723Z,-1.43
2018-12-06T22:45:58.134Z,-1.43
2018-12-06T22:48:28.763Z,-1.47
2018-12-06T22:50:59.431Z,-1.49
2018-12-06T22:53:30.013Z,-1.44
2018-12-06T22:56:00.556Z,-1.55
2018-12-06T22:58:31.059Z,-1.45
2018-12-06T23:01:04.608Z,-1.55
2018-12-06T23:03:36.659Z,-1.64
2018-12-06T23:06:07.715Z,-1.58
2018-12-06T23:08:38.320Z,-1.57
2018-12-06T23:11:08.923Z,-1.62
2018-12-06T23:13:40.466Z,-1.59
2018-12-06T23:16:10.923Z,-1.63
2018-12-06T23:18:41.558Z,-1.52
2018-12-06T23:21:12.330Z,-1.57
2018-12-06T23:23:42.863Z,-1.58
2018-12-06T23:26:13.246Z,-1.65
2018-12-06T23:28:43.880Z,-1.66
2018-12-06T23:31:14.363Z,-1.64
2018-12-06T23:33:44.828Z,-1.75
2018-12-06T23:36:16.528Z,-1.74
2018-12-06T23:38:47.037Z,-1.80
2018-12-06T23:41:17.740Z,-1.84
2018-12-06T23:43:48.274Z,-1.75
2018-12-06T23:46:18.994Z,-1.84
2018-12-06T23:48:49.548Z,-1.95
2018-12-06T23:51:30.886Z,-1.91
2018-12-06T23:54:01.331Z,-1.84
2018-12-06T23:56:31.619Z,-1.82
2018-12-06T23:59:02.188Z,-1.82
